Flight Track Log - Related Links

Times and Time Zones

All times are in EDT time to prevent confusion due to time zone crossing. See the SKW5476 flight status page for this flight to view local times or setup timezone preferences in your user account.

Time Position Orientation Groundspeed Altitude Reporting Facility
EDT Latitude Longitude Course Direction KTS MPH feet Rate Location/Type
Wed 05:35:10 PM 44.3069 -121.1458 334° Northwest 180 207 7,000  Level Seattle Center
Wed 05:36:11 PM 44.3383 -121.2119 304° West 200 230 8,600 1,918 Climbing Seattle Center
Wed 05:37:00 PM 44.3746 -121.4991 305° West  Level FlightAware Approximate
Wed 05:37:12 PM 44.3778 -121.2769 310° West 218 251 10,900  Level Seattle Center
Wed 05:38:00 PM 44.4172 -121.5640 315° West  Level FlightAware Approximate
Wed 05:38:13 PM 44.4094 -121.3444 303° West 210 242 13,400  Level Seattle Center
Wed 05:39:00 PM 44.4619 -121.6266 315° West  Level FlightAware Approximate
Wed 05:39:14 PM 44.4431 -121.4072 307° West 203 234 15,500  Level Seattle Center
Wed 05:40:15 PM 44.4906 -121.4925 308° West 233 268 16,000 246 Climbing Seattle Center
Wed 05:41:16 PM 44.5308 -121.5633 309° West 260 299 16,000  Level Seattle Center
Wed 05:42:17 PM 44.5739 -121.6447 307° West 260 299 16,000  Level Seattle Center
Wed 05:43:18 PM 44.6161 -121.7261 306° West 259 298 16,000  Level Seattle Center
Wed 05:44:19 PM 44.6586 -121.8058 307° West 255 293 16,000  Level Seattle Center
Wed 05:45:20 PM 44.7014 -121.8864 307° West 256 295 16,000  Level Seattle Center
Wed 05:46:21 PM 44.7528 -121.9842 307° West 255 293 16,000  Level Seattle Center
Wed 05:46:49 PM 44.7725 -122.0217 307° West 256 295 16,000 -295 Level Seattle Center
Wed 05:47:22 PM 44.7953 -122.0644 307° West 255 293 15,700 -889 Descending Seattle Center
Wed 05:47:43 PM 44.8058 -122.0872 303° West 248 285 15,200 -1,475 Descending Seattle Center
Wed 05:48:23 PM 44.8381 -122.1408 310° West 249 287 14,200 -1,672 Descending Seattle Center
Wed 05:48:44 PM 44.8519 -122.1719 302° West 249 287 13,500 -1,672 Descending Seattle Center
Wed 05:49:24 PM 44.8783 -122.2222 307° West 250 288 12,500 -1,475 Descending Seattle Center
Wed 05:49:45 PM 44.8997 -122.2347 338° Northwest 244 281 12,000 -1,377 Descending Seattle Center
Wed 05:50:25 PM 44.9419 -122.2497 346° North 244 281 11,100 -1,400 Descending Seattle Center
Wed 05:50:45 PM 44.9656 -122.2597 343° North 236 272 10,600 -1,475 Descending Seattle Center
Wed 05:51:26 PM 45.0047 -122.2733 346° North 240 276 9,600 -1,475 Descending Seattle Center
Wed 05:51:46 PM 45.0283 -122.2797 349° North 235 270 9,100 -1,475 Descending Seattle Center
Wed 05:52:27 PM 45.0692 -122.2939 346° North 239 275 8,100 -1,082 Descending Seattle Center
Wed 05:52:47 PM 45.0936 -122.3019 347° North 238 274 8,000 -197 Descending Seattle Center
Wed 05:53:28 PM 45.1317 -122.3128 349° North 236 272 7,900 -98 Descending Seattle Center
Wed 05:53:48 PM 45.1497 -122.3217 341° North 208 239 7,900 -689 Level Seattle Center
Wed 05:54:29 PM 45.1892 -122.3339 348° North 228 262 7,200 -1,300 Descending Seattle Center
Wed 05:54:48 PM 45.2175 -122.3458 343° North 247 284 6,600 -1,377 Descending Seattle Center
Wed 05:55:30 PM 45.2547 -122.3547 350° North 230 265 5,800 -1,180 Descending Seattle Center
Wed 05:55:49 PM 45.2903 -122.3619 352° North 270 311 5,400 -984 Descending Seattle Center
Wed 05:56:31 PM 45.3272 -122.3733 348° North 245 282 4,800 -1,082 Descending Seattle Center
Wed 05:56:50 PM 45.3603 -122.3856 345° North 255 293 4,300 -1,082 Descending Seattle Center
Wed 05:57:32 PM 45.3967 -122.3978 347° North 253 291 3,700 -1,082 Descending Seattle Center
Wed 05:57:51 PM 45.4242 -122.4117 340° North 235 270 3,200 -1,082 Descending Seattle Center
Wed 05:58:33 PM 45.4572 -122.4236 346° North 246 283 2,600 -700 Descending Seattle Center
Wed 05:58:51 PM 45.4722 -122.4350 332° Northwest 161 185 2,500 -190 Descending Seattle Center
Wed 05:59:36 PM 45.4994 -122.4539 334° Northwest 181 208 2,400 -98 Descending Seattle Center
Wed 05:59:52 PM 45.5078 -122.4606 331° Northwest 139 160 2,400 -492 Level Seattle Center
Wed 06:00:37 PM 45.5372 -122.4708 346° North 156 180 1,900 -689 Descending Seattle Center
Wed 06:00:53 PM 45.5486 -122.4806 329° Northwest 153 176 1,700 -750 Descending Seattle Center

Login

Don't have an account? Register now (free) for customized features, flight alerts, and more!